createdAt,value
2022-08-16T00:01:00.030Z,6.33
2022-08-16T00:04:05.475Z,7.67
2022-08-16T00:07:09.631Z,8.00
2022-08-16T00:10:20.107Z,8.00
2022-08-16T00:13:25.262Z,8.67
2022-08-16T00:17:15.730Z,9.67
2022-08-16T00:19:58.686Z,9.33
2022-08-16T00:23:02.396Z,7.00
2022-08-16T00:26:35.576Z,7.67
2022-08-16T00:29:34.942Z,8.67
2022-08-16T00:32:41.752Z,9.67
2022-08-16T00:35:46.545Z,8.67
2022-08-16T00:38:56.304Z,9.00
2022-08-16T00:42:02.053Z,7.00
2022-08-16T00:45:13.950Z,9.67
2022-08-16T00:48:31.016Z,11.67
2022-08-16T00:51:38.629Z,9.67
2022-08-16T00:54:44.274Z,8.67
2022-08-16T00:57:59.867Z,7.33
2022-08-16T01:01:08.768Z,8.00
2022-08-16T01:04:28.984Z,9.00
2022-08-16T01:07:52.209Z,10.33
2022-08-16T01:11:02.437Z,10.67
2022-08-16T01:14:14.649Z,9.00
2022-08-16T01:17:25.417Z,7.67
2022-08-16T01:20:33.981Z,9.33
2022-08-16T01:24:00.715Z,12.33
2022-08-16T01:27:11.384Z,10.00
2022-08-16T01:30:26.117Z,11.00
2022-08-16T01:33:33.439Z,9.33
2022-08-16T01:36:42.720Z,8.00
2022-08-16T01:39:48.552Z,10.67
2022-08-16T01:42:54.012Z,10.67
2022-08-16T01:46:37.885Z,11.67
2022-08-16T01:49:35.959Z,12.33
2022-08-16T01:52:51.878Z,10.00
2022-08-16T01:56:24.486Z,8.33
2022-08-16T01:59:33.553Z,9.33
2022-08-16T02:02:59.214Z,9.67
2022-08-16T02:06:03.506Z,8.00
2022-08-16T02:09:14.855Z,9.67
2022-08-16T02:12:45.839Z,10.00
2022-08-16T02:15:49.502Z,9.33
2022-08-16T02:18:59.394Z,8.67
2022-08-16T02:22:08.248Z,9.67
2022-08-16T02:25:17.717Z,9.67
2022-08-16T02:28:27.847Z,9.33
2022-08-16T02:32:04.162Z,8.00
2022-08-16T02:35:01.780Z,11.00
2022-08-16T02:38:08.949Z,9.00
2022-08-16T02:41:16.106Z,8.00
2022-08-16T02:44:27.067Z,9.00
2022-08-16T02:47:33.871Z,8.33
2022-08-16T02:51:10.089Z,8.00
2022-08-16T02:54:19.782Z,7.67
2022-08-16T02:57:28.051Z,12.33
2022-08-16T03:00:35.298Z,7.67
2022-08-16T03:04:39.566Z,9.00
2022-08-16T03:07:08.729Z,8.33
2022-08-16T03:10:21.528Z,10.67
2022-08-16T03:13:40.146Z,10.67
2022-08-16T03:16:59.876Z,10.67
2022-08-16T03:20:15.300Z,9.00
2022-08-16T03:23:24.193Z,12.00
2022-08-16T03:26:30.057Z,7.67
2022-08-16T03:29:37.038Z,8.33
2022-08-16T03:32:47.418Z,7.00
2022-08-16T03:35:56.908Z,9.67
2022-08-16T03:39:06.330Z,6.00
2022-08-16T03:42:23.214Z,9.67
2022-08-16T03:45:31.257Z,7.00
2022-08-16T03:48:40.388Z,8.67
2022-08-16T03:51:52.611Z,13.00
2022-08-16T03:55:01.252Z,11.00
2022-08-16T03:58:06.717Z,7.67
2022-08-16T04:01:11.189Z,7.33
2022-08-16T04:04:32.487Z,9.00
2022-08-16T04:07:37.359Z,9.67
2022-08-16T04:10:43.411Z,8.00
2022-08-16T04:14:00.563Z,6.00
2022-08-16T04:17:17.826Z,8.67
2022-08-16T04:20:29.560Z,6.67
2022-08-16T04:23:42.246Z,7.00
2022-08-16T04:26:46.765Z,9.00
2022-08-16T04:30:03.160Z,10.00
2022-08-16T04:33:09.237Z,8.33
2022-08-16T04:36:20.560Z,10.33
2022-08-16T04:39:46.052Z,11.00
2022-08-16T04:42:51.172Z,10.33
2022-08-16T04:46:00.129Z,8.00
2022-08-16T04:49:08.591Z,6.67
2022-08-16T04:52:32.744Z,10.67
2022-08-16T04:55:40.389Z,8.67
2022-08-16T04:58:46.594Z,9.67
2022-08-16T05:02:42.334Z,9.00
2022-08-16T05:05:38.575Z,10.00
2022-08-16T05:08:56.376Z,10.67
2022-08-16T05:12:00.944Z,13.00
2022-08-16T05:15:09.301Z,10.33
2022-08-16T05:18:18.292Z,10.67
2022-08-16T05:21:38.588Z,9.67
2022-08-16T05:24:47.630Z,11.67
2022-08-16T05:27:51.891Z,9.00
2022-08-16T05:30:59.085Z,13.67
2022-08-16T05:34:19.736Z,13.67
2022-08-16T05:37:25.962Z,12.33
2022-08-16T05:40:35.856Z,11.33
2022-08-16T05:43:46.532Z,10.67
2022-08-16T05:46:56.503Z,11.33
2022-08-16T05:50:03.958Z,12.67
2022-08-16T05:53:11.139Z,9.00
2022-08-16T05:56:28.868Z,11.33
2022-08-16T05:59:33.792Z,16.33
2022-08-16T06:02:39.202Z,14.33
2022-08-16T06:05:51.344Z,13.00
2022-08-16T06:08:55.216Z,9.00
2022-08-16T06:12:01.859Z,13.33
2022-08-16T06:15:11.171Z,12.00
2022-08-16T06:18:19.846Z,12.00
2022-08-16T06:21:31.172Z,13.00
2022-08-16T06:24:55.067Z,14.00
2022-08-16T06:28:02.149Z,11.00
2022-08-16T06:31:15.419Z,13.00
2022-08-16T06:34:53.226Z,10.67
2022-08-16T06:37:54.414Z,12.33
2022-08-16T06:41:01.600Z,10.33
2022-08-16T06:44:07.967Z,11.00
2022-08-16T06:47:25.582Z,13.00
2022-08-16T06:50:50.318Z,11.33
2022-08-16T06:53:55.591Z,9.67
2022-08-16T06:57:00.080Z,10.00
2022-08-16T07:00:24.274Z,11.00
2022-08-16T07:03:55.671Z,10.00
2022-08-16T07:07:05.774Z,12.00
2022-08-16T07:10:11.794Z,10.00
2022-08-16T07:13:43.942Z,10.67
2022-08-16T07:16:45.220Z,9.67
2022-08-16T07:20:30.324Z,8.00
2022-08-16T07:23:37.164Z,9.67
2022-08-16T07:26:48.623Z,9.67
2022-08-16T07:29:56.365Z,9.33
2022-08-16T07:33:02.340Z,9.00
2022-08-16T07:36:09.687Z,8.33
2022-08-16T07:39:19.665Z,11.00
2022-08-16T07:42:28.375Z,6.33
2022-08-16T07:45:38.791Z,9.00
2022-08-16T07:48:51.573Z,11.00
2022-08-16T07:52:00.061Z,11.00
2022-08-16T07:55:10.379Z,9.67
2022-08-16T07:58:18.290Z,10.33
2022-08-16T08:01:40.078Z,11.33
2022-08-16T08:04:47.664Z,9.00
2022-08-16T08:07:53.869Z,9.67
2022-08-16T08:11:09.229Z,10.33
2022-08-16T08:14:29.710Z,9.33
2022-08-16T08:17:42.212Z,9.67
2022-08-16T08:21:12.269Z,9.00
2022-08-16T08:24:18.198Z,10.33
2022-08-16T08:27:24.575Z,8.33
2022-08-16T08:30:51.523Z,12.33
2022-08-16T08:33:56.959Z,9.00
2022-08-16T08:37:07.380Z,9.33
2022-08-16T08:40:15.781Z,10.00
2022-08-16T08:43:23.488Z,10.00
2022-08-16T08:46:35.673Z,11.67
2022-08-16T08:49:46.598Z,10.00
2022-08-16T08:52:57.025Z,9.67
2022-08-16T08:56:23.511Z,9.00
2022-08-16T08:59:31.760Z,11.00
2022-08-16T09:02:35.642Z,7.67
2022-08-16T09:05:40.127Z,24.33
2022-08-16T09:08:50.807Z,12.00
2022-08-16T09:12:06.189Z,9.00
2022-08-16T09:15:21.644Z,9.67
2022-08-16T09:18:35.830Z,13.00
2022-08-16T09:21:42.556Z,13.33
2022-08-16T09:24:53.127Z,10.33
2022-08-16T09:28:02.845Z,8.33
2022-08-16T09:31:17.785Z,8.33
2022-08-16T09:34:21.990Z,8.67
2022-08-16T09:37:29.191Z,9.00
2022-08-16T09:40:42.627Z,9.00
2022-08-16T09:43:59.338Z,10.00
2022-08-16T09:47:10.476Z,9.00
2022-08-16T09:50:22.535Z,10.67
2022-08-16T09:53:27.419Z,12.00
2022-08-16T09:56:36.814Z,8.00
2022-08-16T09:59:42.069Z,9.67
2022-08-16T10:02:56.484Z,9.67
2022-08-16T10:06:00.660Z,11.33
2022-08-16T10:09:08.307Z,10.67
2022-08-16T10:12:31.388Z,9.67
2022-08-16T10:15:38.159Z,12.00
2022-08-16T10:19:01.661Z,9.33
2022-08-16T10:22:12.830Z,9.33
2022-08-16T10:27:20.624Z,14.67
2022-08-16T10:28:42.909Z,10.67
2022-08-16T10:31:53.861Z,10.33
2022-08-16T10:34:59.878Z,17.00
2022-08-16T10:38:06.825Z,9.67
2022-08-16T10:41:15.846Z,7.00
2022-08-16T10:44:21.391Z,11.33
2022-08-16T10:47:26.677Z,8.33
2022-08-16T10:50:34.625Z,12.00
2022-08-16T10:53:40.999Z,9.00
2022-08-16T10:56:55.828Z,9.00
2022-08-16T11:00:06.578Z,11.00
2022-08-16T11:03:44.560Z,8.67
2022-08-16T11:11:00.068Z,7.00
2022-08-16T11:14:11.004Z,10.67
2022-08-16T11:17:13.469Z,8.67
2022-08-16T11:23:58.303Z,9.67
2022-08-16T11:27:23.382Z,9.33
2022-08-16T11:30:39.368Z,8.00
2022-08-16T11:33:53.230Z,9.00
2022-08-16T11:37:01.052Z,7.00
2022-08-16T11:40:09.315Z,8.00
2022-08-16T11:43:16.691Z,11.67
2022-08-16T11:46:43.177Z,8.00
2022-08-16T11:49:46.093Z,7.67
2022-08-16T11:52:50.958Z,9.67
2022-08-16T11:55:55.335Z,9.00
2022-08-16T11:58:59.511Z,11.33
2022-08-16T12:02:31.270Z,8.00
2022-08-16T12:05:32.454Z,7.00
2022-08-16T12:08:36.875Z,8.00
2022-08-16T12:11:41.086Z,8.33
2022-08-16T12:14:47.787Z,8.00
2022-08-16T12:17:51.811Z,6.33
2022-08-16T12:20:58.357Z,7.33
2022-08-16T12:24:05.961Z,7.00
2022-08-16T12:27:09.695Z,9.00
2022-08-16T12:30:21.795Z,7.00
2022-08-16T12:33:32.441Z,9.00
2022-08-16T12:36:48.837Z,7.67
2022-08-16T12:39:56.295Z,9.00
2022-08-16T12:43:02.283Z,6.00
2022-08-16T12:46:07.122Z,8.33
2022-08-16T12:49:11.691Z,7.00
2022-08-16T12:52:32.598Z,7.67
2022-08-16T12:55:42.077Z,8.33
2022-08-16T12:58:51.807Z,7.00
2022-08-16T13:01:59.480Z,7.33
2022-08-16T13:05:04.524Z,7.33
2022-08-16T13:08:20.267Z,5.67
2022-08-16T13:11:31.074Z,6.67
2022-08-16T13:14:39.785Z,6.00
2022-08-16T13:17:45.729Z,6.33
2022-08-16T13:20:54.933Z,7.67
2022-08-16T13:24:01.285Z,5.67
2022-08-16T13:27:11.071Z,5.33
2022-08-16T13:30:41.190Z,7.33
2022-08-16T13:33:43.811Z,7.33
2022-08-16T13:36:49.810Z,5.00
2022-08-16T13:39:59.990Z,9.33
2022-08-16T13:43:04.826Z,7.00
2022-08-16T13:46:10.248Z,6.00
2022-08-16T13:49:15.015Z,6.00
2022-08-16T13:52:19.735Z,8.67
2022-08-16T13:55:26.557Z,8.67
2022-08-16T13:58:36.741Z,7.33
2022-08-16T14:01:43.012Z,7.00
2022-08-16T14:04:59.595Z,8.33
2022-08-16T14:08:09.472Z,8.00
2022-08-16T14:11:17.195Z,0.00
2022-08-16T14:14:28.679Z,7.67
2022-08-16T14:18:16.081Z,8.33
2022-08-16T14:21:06.411Z,6.67
2022-08-16T14:24:22.295Z,6.00
2022-08-16T14:27:35.426Z,7.33
2022-08-16T14:30:45.007Z,8.67
2022-08-16T14:33:49.143Z,6.00
2022-08-16T14:36:53.567Z,7.33
2022-08-16T14:39:58.640Z,8.00
2022-08-16T14:43:07.215Z,7.33
2022-08-16T14:46:11.226Z,8.67
2022-08-16T14:49:17.666Z,8.00
2022-08-16T14:52:44.872Z,9.33
2022-08-16T14:55:50.743Z,9.67
2022-08-16T14:58:56.229Z,9.33
2022-08-16T15:02:02.321Z,8.33
2022-08-16T15:05:10.937Z,6.00
2022-08-16T15:08:36.644Z,7.00
2022-08-16T15:11:44.977Z,9.00
2022-08-16T15:14:53.229Z,7.00
2022-08-16T15:17:57.703Z,6.00
2022-08-16T15:21:02.579Z,9.00
2022-08-16T15:24:07.514Z,6.67
2022-08-16T15:27:21.463Z,5.67
2022-08-16T15:30:59.724Z,9.00
2022-08-16T15:33:58.092Z,7.00
2022-08-16T15:37:02.104Z,6.00
2022-08-16T15:40:26.651Z,6.00
2022-08-16T15:43:39.831Z,8.00
2022-08-16T15:46:56.271Z,11.00
2022-08-16T15:50:01.906Z,9.00
2022-08-16T15:53:12.764Z,6.00
2022-08-16T15:56:18.855Z,7.00
2022-08-16T15:59:26.971Z,7.00
2022-08-16T16:02:33.607Z,8.00
2022-08-16T16:05:38.546Z,9.33
2022-08-16T16:08:43.262Z,8.00
2022-08-16T16:11:55.135Z,8.67
2022-08-16T16:15:01.164Z,7.00
2022-08-16T16:18:10.058Z,6.67
2022-08-16T16:21:20.413Z,7.00
2022-08-16T16:24:30.674Z,6.33
2022-08-16T16:27:38.797Z,7.00
2022-08-16T16:30:45.681Z,7.33
2022-08-16T16:33:55.922Z,8.00
2022-08-16T16:36:59.949Z,8.00
2022-08-16T16:40:03.982Z,7.00
2022-08-16T16:43:09.365Z,6.67
2022-08-16T16:46:40.849Z,9.00
2022-08-16T16:49:45.628Z,6.67
2022-08-16T16:52:53.639Z,8.33
2022-08-16T16:55:57.604Z,10.67
2022-08-16T16:59:09.423Z,10.67
2022-08-16T17:02:41.203Z,14.00
2022-08-16T17:05:40.736Z,9.67
2022-08-16T17:08:46.423Z,10.00
2022-08-16T17:11:56.226Z,8.67
2022-08-16T17:15:00.730Z,10.33
2022-08-16T17:19:15.716Z,11.00
2022-08-16T17:21:36.936Z,8.33
2022-08-16T17:24:45.369Z,11.00
2022-08-16T17:27:51.687Z,8.00
2022-08-16T17:30:59.040Z,12.33
2022-08-16T17:34:30.193Z,8.33
2022-08-16T17:37:50.918Z,13.00
2022-08-16T17:41:00.312Z,10.00
2022-08-16T17:44:05.583Z,12.00
2022-08-16T17:47:09.446Z,9.33
2022-08-16T17:50:13.328Z,11.00
2022-08-16T17:53:22.004Z,8.67
2022-08-16T17:56:30.452Z,10.33
2022-08-16T17:59:41.072Z,8.33
2022-08-16T18:02:45.125Z,9.67
2022-08-16T18:05:49.581Z,11.00
2022-08-16T18:09:04.003Z,8.67
2022-08-16T18:16:25.550Z,12.33
2022-08-16T18:25:12.038Z,18.00
2022-08-16T18:28:16.554Z,14.67
2022-08-16T18:31:20.410Z,17.00
2022-08-16T18:34:24.050Z,17.33
2022-08-16T18:37:27.936Z,19.00
2022-08-16T18:40:33.858Z,18.00
2022-08-16T18:44:23.787Z,23.33
2022-08-16T18:47:01.528Z,22.00
2022-08-16T18:50:06.288Z,19.67
2022-08-16T18:53:12.391Z,19.33
2022-08-16T18:56:17.834Z,25.33
2022-08-16T18:59:22.888Z,21.33
2022-08-16T19:02:56.217Z,16.67
2022-08-16T19:05:53.297Z,20.33
2022-08-16T19:08:57.181Z,24.67
2022-08-16T19:12:06.749Z,23.00
2022-08-16T19:15:14.096Z,16.33
2022-08-16T19:18:18.377Z,19.00
2022-08-16T19:21:22.256Z,21.00
2022-08-16T19:24:29.089Z,18.67
2022-08-16T19:27:35.146Z,18.67
2022-08-16T19:30:40.671Z,17.00
2022-08-16T19:33:54.457Z,15.33
2022-08-16T19:37:02.541Z,20.67
2022-08-16T19:40:36.017Z,20.00
2022-08-16T19:43:35.778Z,19.33
2022-08-16T19:46:41.766Z,14.33
2022-08-16T19:49:45.522Z,14.00
2022-08-16T19:52:53.709Z,14.00
2022-08-16T19:55:58.039Z,14.67
2022-08-16T19:59:21.442Z,15.00
2022-08-16T20:02:35.664Z,13.00
2022-08-16T20:06:06.190Z,12.33
2022-08-16T20:09:15.738Z,15.00
2022-08-16T20:12:22.787Z,12.67
2022-08-16T20:15:30.711Z,12.00
2022-08-16T20:18:34.815Z,15.67
2022-08-16T20:21:38.477Z,12.00
2022-08-16T20:24:42.305Z,12.00
2022-08-16T20:27:46.084Z,11.00
2022-08-16T20:30:52.651Z,13.33
2022-08-16T20:33:57.880Z,13.00
2022-08-16T20:37:02.892Z,13.00
2022-08-16T20:40:28.265Z,10.00
2022-08-16T20:43:34.819Z,13.00
2022-08-16T20:46:40.311Z,11.67
2022-08-16T20:49:44.710Z,11.00
2022-08-16T20:52:53.259Z,14.00
2022-08-16T20:55:58.829Z,15.67
2022-08-16T20:59:03.666Z,13.67
2022-08-16T21:02:10.894Z,12.67
2022-08-16T21:05:22.718Z,15.00
2022-08-16T21:08:51.759Z,14.67
2022-08-16T21:11:54.235Z,16.00
2022-08-16T21:14:58.270Z,12.00
2022-08-16T21:18:03.569Z,13.00
2022-08-16T21:21:07.530Z,12.33
2022-08-16T21:24:11.234Z,14.00
2022-08-16T21:27:17.380Z,9.33
2022-08-16T21:30:25.081Z,11.67
2022-08-16T21:33:36.430Z,14.33
2022-08-16T21:36:40.221Z,11.00
2022-08-16T21:39:44.665Z,12.33
2022-08-16T21:42:48.529Z,13.00
2022-08-16T21:45:55.474Z,15.00
2022-08-16T21:49:01.143Z,13.33
2022-08-16T21:52:05.861Z,12.00
2022-08-16T21:55:10.584Z,15.00
2022-08-16T21:58:14.918Z,11.33
2022-08-16T22:01:18.621Z,12.33
2022-08-16T22:04:36.851Z,13.67
2022-08-16T22:07:42.371Z,14.67
2022-08-16T22:11:07.091Z,13.67
2022-08-16T22:14:12.566Z,13.00
2022-08-16T22:17:16.880Z,12.33
2022-08-16T22:20:24.092Z,17.00
2022-08-16T22:23:28.095Z,15.67
2022-08-16T22:26:34.694Z,13.67
2022-08-16T22:29:42.163Z,15.67
2022-08-16T22:32:46.587Z,13.33
2022-08-16T22:35:55.742Z,12.00
2022-08-16T22:39:01.450Z,9.67
2022-08-16T22:42:08.505Z,18.00
2022-08-16T22:45:13.567Z,14.33
2022-08-16T22:48:18.313Z,11.00
2022-08-16T22:51:25.509Z,14.00
2022-08-16T22:54:45.903Z,15.00
2022-08-16T22:57:53.023Z,10.67
2022-08-16T23:00:59.594Z,12.00
2022-08-16T23:04:04.070Z,12.67
2022-08-16T23:07:09.522Z,13.33
2022-08-16T23:10:13.193Z,15.00
2022-08-16T23:13:18.259Z,12.00
2022-08-16T23:16:23.020Z,10.67
2022-08-16T23:19:29.601Z,10.00
2022-08-16T23:23:19.014Z,11.33
2022-08-16T23:26:45.298Z,12.67
2022-08-16T23:29:33.890Z,13.00
2022-08-16T23:32:45.419Z,12.67
2022-08-16T23:35:52.210Z,12.00
2022-08-16T23:38:57.729Z,14.00
2022-08-16T23:42:02.027Z,14.00
2022-08-16T23:45:07.420Z,16.00
2022-08-16T23:48:12.425Z,8.00
2022-08-16T23:51:17.190Z,11.00
2022-08-16T23:54:22.614Z,13.00
2022-08-16T23:57:27.174Z,11.00
